sensor_id;sensor_type;location;lat;lon;timestamp;P1;durP1;ratioP1;P2;durP2;ratioP2
10309;SDS011;5200;43.236;27.986;2023-09-18T00:02:06;5.32;;;3.75;;
10309;SDS011;5200;43.236;27.986;2023-09-18T00:04:34;6.22;;;3.90;;
10309;SDS011;5200;43.236;27.986;2023-09-18T00:07:01;4.82;;;3.35;;
10309;SDS011;5200;43.236;27.986;2023-09-18T00:09:28;4.95;;;3.63;;
10309;SDS011;5200;43.236;27.986;2023-09-18T00:11:54;4.35;;;3.90;;
10309;SDS011;5200;43.236;27.986;2023-09-18T00:14:21;4.15;;;3.75;;
10309;SDS011;5200;43.236;27.986;2023-09-18T00:16:48;4.47;;;3.67;;
10309;SDS011;5200;43.236;27.986;2023-09-18T00:19:17;5.65;;;4.20;;
10309;SDS011;5200;43.236;27.986;2023-09-18T00:21:45;5.30;;;3.58;;
10309;SDS011;5200;43.236;27.986;2023-09-18T00:24:12;4.38;;;3.97;;
10309;SDS011;5200;43.236;27.986;2023-09-18T00:26:39;7.22;;;3.40;;
10309;SDS011;5200;43.236;27.986;2023-09-18T00:29:06;10.73;;;4.00;;
10309;SDS011;5200;43.236;27.986;2023-09-18T00:31:33;3.85;;;3.40;;
10309;SDS011;5200;43.236;27.986;2023-09-18T00:33:59;5.20;;;3.92;;
10309;SDS011;5200;43.236;27.986;2023-09-18T00:36:26;4.47;;;3.80;;
10309;SDS011;5200;43.236;27.986;2023-09-18T00:38:54;4.88;;;3.88;;
10309;SDS011;5200;43.236;27.986;2023-09-18T00:41:21;4.72;;;3.80;;
10309;SDS011;5200;43.236;27.986;2023-09-18T00:43:48;4.43;;;4.00;;
10309;SDS011;5200;43.236;27.986;2023-09-18T00:46:15;7.13;;;4.13;;
10309;SDS011;5200;43.236;27.986;2023-09-18T00:48:42;5.47;;;4.00;;
10309;SDS011;5200;43.236;27.986;2023-09-18T00:51:09;5.68;;;4.00;;
10309;SDS011;5200;43.236;27.986;2023-09-18T00:53:36;4.57;;;3.90;;
10309;SDS011;5200;43.236;27.986;2023-09-18T00:56:06;6.32;;;3.88;;
10309;SDS011;5200;43.236;27.986;2023-09-18T00:58:32;5.35;;;3.88;;
10309;SDS011;5200;43.236;27.986;2023-09-18T01:01:00;5.68;;;3.90;;
10309;SDS011;5200;43.236;27.986;2023-09-18T01:03:27;5.45;;;3.90;;
10309;SDS011;5200;43.236;27.986;2023-09-18T01:05:54;4.63;;;4.10;;
10309;SDS011;5200;43.236;27.986;2023-09-18T01:08:22;4.38;;;3.97;;
10309;SDS011;5200;43.236;27.986;2023-09-18T01:10:53;5.40;;;4.00;;
10309;SDS011;5200;43.236;27.986;2023-09-18T01:13:29;7.05;;;4.45;;
10309;SDS011;5200;43.236;27.986;2023-09-18T01:16:02;4.85;;;3.72;;
10309;SDS011;5200;43.236;27.986;2023-09-18T01:18:32;8.25;;;4.28;;
10309;SDS011;5200;43.236;27.986;2023-09-18T01:20:59;5.38;;;4.03;;
10309;SDS011;5200;43.236;27.986;2023-09-18T01:23:27;5.40;;;3.80;;
10309;SDS011;5200;43.236;27.986;2023-09-18T01:25:54;5.60;;;4.10;;
10309;SDS011;5200;43.236;27.986;2023-09-18T01:28:21;3.95;;;3.58;;
10309;SDS011;5200;43.236;27.986;2023-09-18T01:30:48;6.18;;;3.33;;
10309;SDS011;5200;43.236;27.986;2023-09-18T01:33:14;4.38;;;3.80;;
10309;SDS011;5200;43.236;27.986;2023-09-18T01:35:42;5.18;;;4.10;;
10309;SDS011;5200;43.236;27.986;2023-09-18T01:38:11;5.88;;;3.70;;
10309;SDS011;5200;43.236;27.986;2023-09-18T01:40:40;7.95;;;3.97;;
10309;SDS011;5200;43.236;27.986;2023-09-18T01:43:08;5.03;;;3.95;;
10309;SDS011;5200;43.236;27.986;2023-09-18T01:45:35;5.53;;;3.53;;
10309;SDS011;5200;43.236;27.986;2023-09-18T01:48:04;5.13;;;3.97;;
10309;SDS011;5200;43.236;27.986;2023-09-18T01:50:31;6.43;;;4.65;;
10309;SDS011;5200;43.236;27.986;2023-09-18T01:52:58;6.30;;;3.80;;
10309;SDS011;5200;43.236;27.986;2023-09-18T01:55:25;6.55;;;4.00;;
10309;SDS011;5200;43.236;27.986;2023-09-18T01:57:55;5.30;;;3.75;;
10309;SDS011;5200;43.236;27.986;2023-09-18T02:00:22;4.63;;;4.22;;
10309;SDS011;5200;43.236;27.986;2023-09-18T02:02:49;6.22;;;4.47;;
10309;SDS011;5200;43.236;27.986;2023-09-18T02:05:16;7.45;;;4.03;;
10309;SDS011;5200;43.236;27.986;2023-09-18T02:07:43;4.22;;;3.83;;
10309;SDS011;5200;43.236;27.986;2023-09-18T02:10:09;6.00;;;3.90;;
10309;SDS011;5200;43.236;27.986;2023-09-18T02:12:38;5.90;;;4.40;;
10309;SDS011;5200;43.236;27.986;2023-09-18T02:15:06;6.47;;;4.10;;
10309;SDS011;5200;43.236;27.986;2023-09-18T02:17:36;4.35;;;3.92;;
10309;SDS011;5200;43.236;27.986;2023-09-18T02:20:03;5.75;;;5.03;;
10309;SDS011;5200;43.236;27.986;2023-09-18T02:22:36;5.28;;;3.78;;
10309;SDS011;5200;43.236;27.986;2023-09-18T02:25:05;6.55;;;4.32;;
10309;SDS011;5200;43.236;27.986;2023-09-18T02:27:32;6.15;;;4.28;;
10309;SDS011;5200;43.236;27.986;2023-09-18T02:29:59;5.30;;;4.30;;
10309;SDS011;5200;43.236;27.986;2023-09-18T02:32:28;5.82;;;4.40;;
10309;SDS011;5200;43.236;27.986;2023-09-18T02:34:55;5.45;;;4.30;;
10309;SDS011;5200;43.236;27.986;2023-09-18T02:37:21;7.55;;;4.60;;
10309;SDS011;5200;43.236;27.986;2023-09-18T02:39:49;6.20;;;4.70;;
10309;SDS011;5200;43.236;27.986;2023-09-18T02:42:16;5.30;;;4.75;;
10309;SDS011;5200;43.236;27.986;2023-09-18T02:44:42;4.55;;;4.15;;
10309;SDS011;5200;43.236;27.986;2023-09-18T02:47:09;5.25;;;4.55;;
10309;SDS011;5200;43.236;27.986;2023-09-18T02:49:37;8.02;;;4.80;;
10309;SDS011;5200;43.236;27.986;2023-09-18T02:52:04;8.65;;;4.65;;
10309;SDS011;5200;43.236;27.986;2023-09-18T02:54:31;5.55;;;4.45;;
10309;SDS011;5200;43.236;27.986;2023-09-18T02:56:58;5.13;;;4.43;;
10309;SDS011;5200;43.236;27.986;2023-09-18T02:59:25;4.95;;;4.45;;
10309;SDS011;5200;43.236;27.986;2023-09-18T03:01:52;5.68;;;4.40;;
10309;SDS011;5200;43.236;27.986;2023-09-18T03:04:19;5.85;;;4.63;;
10309;SDS011;5200;43.236;27.986;2023-09-18T03:06:47;6.22;;;4.53;;
10309;SDS011;5200;43.236;27.986;2023-09-18T03:09:14;6.50;;;5.38;;
10309;SDS011;5200;43.236;27.986;2023-09-18T03:11:41;5.22;;;4.72;;
10309;SDS011;5200;43.236;27.986;2023-09-18T03:14:09;5.03;;;4.50;;
10309;SDS011;5200;43.236;27.986;2023-09-18T03:16:36;6.75;;;4.95;;
10309;SDS011;5200;43.236;27.986;2023-09-18T03:19:03;5.10;;;4.60;;
10309;SDS011;5200;43.236;27.986;2023-09-18T03:21:30;7.78;;;5.40;;
10309;SDS011;5200;43.236;27.986;2023-09-18T03:23:59;6.13;;;5.10;;
10309;SDS011;5200;43.236;27.986;2023-09-18T03:26:28;5.80;;;5.05;;
10309;SDS011;5200;43.236;27.986;2023-09-18T03:28:54;9.30;;;5.90;;
10309;SDS011;5200;43.236;27.986;2023-09-18T03:31:21;7.20;;;5.57;;
10309;SDS011;5200;43.236;27.986;2023-09-18T03:33:48;6.15;;;5.28;;
10309;SDS011;5200;43.236;27.986;2023-09-18T03:36:15;7.10;;;5.13;;
10309;SDS011;5200;43.236;27.986;2023-09-18T03:38:42;5.43;;;4.90;;
10309;SDS011;5200;43.236;27.986;2023-09-18T03:41:10;6.72;;;5.15;;
10309;SDS011;5200;43.236;27.986;2023-09-18T03:43:37;5.20;;;4.70;;
10309;SDS011;5200;43.236;27.986;2023-09-18T03:46:04;5.50;;;5.00;;
10309;SDS011;5200;43.236;27.986;2023-09-18T03:48:31;7.68;;;5.05;;
10309;SDS011;5200;43.236;27.986;2023-09-18T03:51:02;7.15;;;5.45;;
10309;SDS011;5200;43.236;27.986;2023-09-18T03:53:29;6.07;;;5.18;;
10309;SDS011;5200;43.236;27.986;2023-09-18T03:55:56;6.40;;;5.63;;
10309;SDS011;5200;43.236;27.986;2023-09-18T03:58:24;6.00;;;5.25;;
10309;SDS011;5200;43.236;27.986;2023-09-18T04:00:52;7.25;;;5.75;;
10309;SDS011;5200;43.236;27.986;2023-09-18T04:03:18;10.13;;;5.20;;
10309;SDS011;5200;43.236;27.986;2023-09-18T04:05:45;8.00;;;4.68;;
10309;SDS011;5200;43.236;27.986;2023-09-18T04:08:12;6.60;;;5.50;;
10309;SDS011;5200;43.236;27.986;2023-09-18T04:10:39;8.15;;;5.53;;
10309;SDS011;5200;43.236;27.986;2023-09-18T04:13:06;7.15;;;5.00;;
10309;SDS011;5200;43.236;27.986;2023-09-18T04:15:35;11.43;;;4.88;;
10309;SDS011;5200;43.236;27.986;2023-09-18T04:18:03;8.90;;;5.30;;
10309;SDS011;5200;43.236;27.986;2023-09-18T04:20:30;14.07;;;5.28;;
10309;SDS011;5200;43.236;27.986;2023-09-18T04:25:44;7.05;;;5.75;;
10309;SDS011;5200;43.236;27.986;2023-09-18T04:28:11;5.97;;;5.10;;
10309;SDS011;5200;43.236;27.986;2023-09-18T04:30:40;5.90;;;5.35;;
10309;SDS011;5200;43.236;27.986;2023-09-18T04:33:07;9.38;;;5.05;;
10309;SDS011;5200;43.236;27.986;2023-09-18T04:35:33;5.65;;;5.00;;
10309;SDS011;5200;43.236;27.986;2023-09-18T04:38:00;8.20;;;5.30;;
10309;SDS011;5200;43.236;27.986;2023-09-18T04:40:27;8.40;;;4.70;;
10309;SDS011;5200;43.236;27.986;2023-09-18T04:42:57;14.50;;;5.25;;
10309;SDS011;5200;43.236;27.986;2023-09-18T04:45:24;13.07;;;5.43;;
10309;SDS011;5200;43.236;27.986;2023-09-18T04:47:52;7.35;;;5.35;;
10309;SDS011;5200;43.236;27.986;2023-09-18T04:50:19;9.43;;;5.43;;
10309;SDS011;5200;43.236;27.986;2023-09-18T04:52:46;12.27;;;4.88;;
10309;SDS011;5200;43.236;27.986;2023-09-18T04:55:13;6.50;;;5.18;;
10309;SDS011;5200;43.236;27.986;2023-09-18T04:57:40;8.23;;;5.03;;
10309;SDS011;5200;43.236;27.986;2023-09-18T05:00:07;6.47;;;4.80;;
10309;SDS011;5200;43.236;27.986;2023-09-18T05:02:38;9.20;;;5.38;;
10309;SDS011;5200;43.236;27.986;2023-09-18T05:05:07;7.55;;;5.25;;
10309;SDS011;5200;43.236;27.986;2023-09-18T05:07:35;8.77;;;4.97;;
10309;SDS011;5200;43.236;27.986;2023-09-18T05:10:02;8.10;;;4.95;;
10309;SDS011;5200;43.236;27.986;2023-09-18T05:15:23;8.75;;;5.55;;
10309;SDS011;5200;43.236;27.986;2023-09-18T05:17:51;6.88;;;4.43;;
10309;SDS011;5200;43.236;27.986;2023-09-18T05:20:23;5.70;;;5.05;;
10309;SDS011;5200;43.236;27.986;2023-09-18T05:22:51;10.95;;;5.18;;
10309;SDS011;5200;43.236;27.986;2023-09-18T05:25:29;6.97;;;4.25;;
10309;SDS011;5200;43.236;27.986;2023-09-18T05:27:58;7.25;;;4.47;;
10309;SDS011;5200;43.236;27.986;2023-09-18T05:30:26;5.10;;;4.53;;
10309;SDS011;5200;43.236;27.986;2023-09-18T05:32:54;6.25;;;4.90;;
10309;SDS011;5200;43.236;27.986;2023-09-18T05:35:22;4.57;;;4.18;;
10309;SDS011;5200;43.236;27.986;2023-09-18T05:37:50;5.78;;;4.60;;
10309;SDS011;5200;43.236;27.986;2023-09-18T05:40:17;5.00;;;4.45;;
10309;SDS011;5200;43.236;27.986;2023-09-18T05:42:44;7.97;;;4.10;;
10309;SDS011;5200;43.236;27.986;2023-09-18T05:45:11;6.85;;;4.07;;
10309;SDS011;5200;43.236;27.986;2023-09-18T05:47:39;4.63;;;4.20;;
10309;SDS011;5200;43.236;27.986;2023-09-18T05:50:08;6.45;;;4.50;;
10309;SDS011;5200;43.236;27.986;2023-09-18T05:52:41;5.35;;;3.58;;
10309;SDS011;5200;43.236;27.986;2023-09-18T05:55:09;6.82;;;4.75;;
10309;SDS011;5200;43.236;27.986;2023-09-18T05:57:36;8.15;;;4.15;;
10309;SDS011;5200;43.236;27.986;2023-09-18T06:00:03;9.10;;;4.38;;
10309;SDS011;5200;43.236;27.986;2023-09-18T06:02:31;6.65;;;5.20;;
10309;SDS011;5200;43.236;27.986;2023-09-18T06:04:58;5.43;;;4.10;;
10309;SDS011;5200;43.236;27.986;2023-09-18T06:07:26;5.18;;;4.40;;
10309;SDS011;5200;43.236;27.986;2023-09-18T06:09:55;6.88;;;4.28;;
10309;SDS011;5200;43.236;27.986;2023-09-18T06:12:22;9.88;;;4.10;;
10309;SDS011;5200;43.236;27.986;2023-09-18T06:14:49;6.35;;;4.22;;
10309;SDS011;5200;43.236;27.986;2023-09-18T06:17:17;5.95;;;3.33;;
10309;SDS011;5200;43.236;27.986;2023-09-18T06:19:44;7.32;;;3.85;;
10309;SDS011;5200;43.236;27.986;2023-09-18T06:22:12;7.38;;;3.58;;
10309;SDS011;5200;43.236;27.986;2023-09-18T06:24:39;11.85;;;3.80;;
10309;SDS011;5200;43.236;27.986;2023-09-18T06:27:07;11.38;;;3.72;;
10309;SDS011;5200;43.236;27.986;2023-09-18T06:29:36;5.32;;;3.60;;
10309;SDS011;5200;43.236;27.986;2023-09-18T06:32:04;4.40;;;3.72;;
10309;SDS011;5200;43.236;27.986;2023-09-18T06:34:32;5.75;;;4.22;;
10309;SDS011;5200;43.236;27.986;2023-09-18T06:36:59;8.05;;;4.22;;
10309;SDS011;5200;43.236;27.986;2023-09-18T06:39:26;4.30;;;3.90;;
10309;SDS011;5200;43.236;27.986;2023-09-18T06:41:54;8.98;;;4.35;;
10309;SDS011;5200;43.236;27.986;2023-09-18T06:44:23;3.85;;;3.45;;
10309;SDS011;5200;43.236;27.986;2023-09-18T06:46:51;4.75;;;3.58;;
10309;SDS011;5200;43.236;27.986;2023-09-18T06:49:31;4.07;;;3.63;;
10309;SDS011;5200;43.236;27.986;2023-09-18T06:51:59;5.78;;;3.75;;
10309;SDS011;5200;43.236;27.986;2023-09-18T06:54:26;4.93;;;3.95;;
10309;SDS011;5200;43.236;27.986;2023-09-18T06:56:53;7.38;;;4.47;;
10309;SDS011;5200;43.236;27.986;2023-09-18T07:02:29;7.70;;;3.15;;
10309;SDS011;5200;43.236;27.986;2023-09-18T07:04:56;6.32;;;3.80;;
10309;SDS011;5200;43.236;27.986;2023-09-18T07:07:23;10.00;;;4.18;;
10309;SDS011;5200;43.236;27.986;2023-09-18T07:09:53;4.50;;;3.33;;
10309;SDS011;5200;43.236;27.986;2023-09-18T07:12:23;5.25;;;3.97;;
10309;SDS011;5200;43.236;27.986;2023-09-18T07:14:51;3.90;;;3.35;;
10309;SDS011;5200;43.236;27.986;2023-09-18T07:17:19;6.28;;;3.50;;
10309;SDS011;5200;43.236;27.986;2023-09-18T07:19:46;6.65;;;3.85;;
10309;SDS011;5200;43.236;27.986;2023-09-18T07:22:13;5.68;;;3.70;;
10309;SDS011;5200;43.236;27.986;2023-09-18T07:24:40;6.50;;;3.35;;
10309;SDS011;5200;43.236;27.986;2023-09-18T07:27:10;5.00;;;3.70;;
10309;SDS011;5200;43.236;27.986;2023-09-18T07:29:38;5.30;;;3.88;;
10309;SDS011;5200;43.236;27.986;2023-09-18T07:32:06;9.55;;;4.03;;
10309;SDS011;5200;43.236;27.986;2023-09-18T07:34:34;4.63;;;3.35;;
10309;SDS011;5200;43.236;27.986;2023-09-18T07:37:01;5.18;;;2.70;;
10309;SDS011;5200;43.236;27.986;2023-09-18T07:39:28;6.38;;;3.13;;
10309;SDS011;5200;43.236;27.986;2023-09-18T07:41:55;6.57;;;2.67;;
10309;SDS011;5200;43.236;27.986;2023-09-18T07:44:22;3.83;;;2.75;;
10309;SDS011;5200;43.236;27.986;2023-09-18T07:46:49;6.25;;;2.72;;
10309;SDS011;5200;43.236;27.986;2023-09-18T07:49:17;3.28;;;2.53;;
10309;SDS011;5200;43.236;27.986;2023-09-18T07:51:44;14.75;;;2.92;;
10309;SDS011;5200;43.236;27.986;2023-09-18T07:54:13;9.20;;;2.90;;
10309;SDS011;5200;43.236;27.986;2023-09-18T07:56:41;3.75;;;2.80;;
10309;SDS011;5200;43.236;27.986;2023-09-18T07:59:08;12.82;;;2.97;;
10309;SDS011;5200;43.236;27.986;2023-09-18T08:01:35;3.65;;;3.00;;
10309;SDS011;5200;43.236;27.986;2023-09-18T08:04:02;3.00;;;2.70;;
10309;SDS011;5200;43.236;27.986;2023-09-18T08:06:32;3.70;;;2.97;;
10309;SDS011;5200;43.236;27.986;2023-09-18T08:09:00;4.88;;;2.90;;
10309;SDS011;5200;43.236;27.986;2023-09-18T08:11:27;6.47;;;2.60;;
10309;SDS011;5200;43.236;27.986;2023-09-18T08:13:54;11.13;;;3.33;;
10309;SDS011;5200;43.236;27.986;2023-09-18T08:16:21;4.47;;;2.50;;
10309;SDS011;5200;43.236;27.986;2023-09-18T08:18:48;7.68;;;2.40;;
10309;SDS011;5200;43.236;27.986;2023-09-18T08:21:15;6.15;;;2.50;;
10309;SDS011;5200;43.236;27.986;2023-09-18T08:23:43;4.32;;;2.80;;
10309;SDS011;5200;43.236;27.986;2023-09-18T08:26:11;12.15;;;3.60;;
10309;SDS011;5200;43.236;27.986;2023-09-18T08:28:38;4.82;;;3.00;;
10309;SDS011;5200;43.236;27.986;2023-09-18T08:31:08;5.43;;;3.47;;
10309;SDS011;5200;43.236;27.986;2023-09-18T08:33:35;5.93;;;3.00;;
10309;SDS011;5200;43.236;27.986;2023-09-18T08:36:02;3.00;;;2.70;;
10309;SDS011;5200;43.236;27.986;2023-09-18T08:38:29;4.18;;;2.80;;
10309;SDS011;5200;43.236;27.986;2023-09-18T08:40:58;8.27;;;3.08;;
10309;SDS011;5200;43.236;27.986;2023-09-18T08:43:25;5.40;;;2.55;;
10309;SDS011;5200;43.236;27.986;2023-09-18T08:45:54;5.28;;;3.03;;
10309;SDS011;5200;43.236;27.986;2023-09-18T08:48:26;4.28;;;3.42;;
10309;SDS011;5200;43.236;27.986;2023-09-18T08:51:00;6.78;;;3.00;;
10309;SDS011;5200;43.236;27.986;2023-09-18T08:53:28;3.35;;;3.00;;
10309;SDS011;5200;43.236;27.986;2023-09-18T08:55:57;6.25;;;3.13;;
10309;SDS011;5200;43.236;27.986;2023-09-18T08:58:28;6.75;;;3.20;;
10309;SDS011;5200;43.236;27.986;2023-09-18T09:00:58;3.45;;;2.90;;
10309;SDS011;5200;43.236;27.986;2023-09-18T09:03:26;4.22;;;3.40;;
10309;SDS011;5200;43.236;27.986;2023-09-18T09:05:53;4.82;;;3.05;;
10309;SDS011;5200;43.236;27.986;2023-09-18T09:08:20;5.85;;;3.30;;
10309;SDS011;5200;43.236;27.986;2023-09-18T09:10:47;5.32;;;3.22;;
10309;SDS011;5200;43.236;27.986;2023-09-18T09:13:16;5.07;;;3.05;;
10309;SDS011;5200;43.236;27.986;2023-09-18T09:18:46;5.00;;;2.65;;
10309;SDS011;5200;43.236;27.986;2023-09-18T09:21:14;4.88;;;3.05;;
10309;SDS011;5200;43.236;27.986;2023-09-18T09:23:45;3.83;;;2.90;;
10309;SDS011;5200;43.236;27.986;2023-09-18T09:26:17;5.55;;;3.20;;
10309;SDS011;5200;43.236;27.986;2023-09-18T09:28:46;2.63;;;2.40;;
10309;SDS011;5200;43.236;27.986;2023-09-18T09:31:22;5.70;;;2.85;;
10309;SDS011;5200;43.236;27.986;2023-09-18T09:33:51;5.75;;;3.00;;
10309;SDS011;5200;43.236;27.986;2023-09-18T09:36:19;5.22;;;3.22;;
10309;SDS011;5200;43.236;27.986;2023-09-18T09:38:46;3.22;;;2.90;;
10309;SDS011;5200;43.236;27.986;2023-09-18T09:41:13;3.88;;;3.05;;
10309;SDS011;5200;43.236;27.986;2023-09-18T09:43:41;5.88;;;3.38;;
10309;SDS011;5200;43.236;27.986;2023-09-18T09:46:24;4.43;;;2.78;;
10309;SDS011;5200;43.236;27.986;2023-09-18T09:48:59;8.07;;;2.95;;
10309;SDS011;5200;43.236;27.986;2023-09-18T09:51:27;5.88;;;2.58;;
10309;SDS011;5200;43.236;27.986;2023-09-18T09:53:54;4.65;;;3.10;;
10309;SDS011;5200;43.236;27.986;2023-09-18T09:56:35;4.65;;;2.67;;
10309;SDS011;5200;43.236;27.986;2023-09-18T09:59:07;8.00;;;2.65;;
10309;SDS011;5200;43.236;27.986;2023-09-18T10:01:35;3.13;;;2.45;;
10309;SDS011;5200;43.236;27.986;2023-09-18T10:04:03;3.58;;;2.60;;
10309;SDS011;5200;43.236;27.986;2023-09-18T10:06:32;3.30;;;2.60;;
10309;SDS011;5200;43.236;27.986;2023-09-18T10:09:00;9.30;;;2.88;;
10309;SDS011;5200;43.236;27.986;2023-09-18T10:11:28;8.93;;;2.75;;
10309;SDS011;5200;43.236;27.986;2023-09-18T10:13:59;6.15;;;2.30;;
10309;SDS011;5200;43.236;27.986;2023-09-18T10:16:32;10.07;;;3.20;;
10309;SDS011;5200;43.236;27.986;2023-09-18T10:19:07;6.20;;;2.60;;
10309;SDS011;5200;43.236;27.986;2023-09-18T10:21:41;3.65;;;2.80;;
10309;SDS011;5200;43.236;27.986;2023-09-18T10:24:17;8.00;;;3.22;;
10309;SDS011;5200;43.236;27.986;2023-09-18T10:26:50;5.85;;;2.33;;
10309;SDS011;5200;43.236;27.986;2023-09-18T10:29:21;3.60;;;2.90;;
10309;SDS011;5200;43.236;27.986;2023-09-18T10:31:51;6.95;;;2.80;;
10309;SDS011;5200;43.236;27.986;2023-09-18T10:34:19;5.38;;;2.47;;
10309;SDS011;5200;43.236;27.986;2023-09-18T10:36:47;2.80;;;2.60;;
10309;SDS011;5200;43.236;27.986;2023-09-18T10:39:15;6.00;;;2.83;;
10309;SDS011;5200;43.236;27.986;2023-09-18T10:41:45;7.82;;;2.85;;
10309;SDS011;5200;43.236;27.986;2023-09-18T10:44:13;5.82;;;2.60;;
10309;SDS011;5200;43.236;27.986;2023-09-18T10:46:41;15.50;;;3.20;;
10309;SDS011;5200;43.236;27.986;2023-09-18T10:49:09;6.93;;;2.75;;
10309;SDS011;5200;43.236;27.986;2023-09-18T10:51:37;8.75;;;2.65;;
10309;SDS011;5200;43.236;27.986;2023-09-18T10:54:07;8.35;;;3.30;;
10309;SDS011;5200;43.236;27.986;2023-09-18T10:56:35;4.63;;;2.75;;
10309;SDS011;5200;43.236;27.986;2023-09-18T10:59:05;3.70;;;2.80;;
10309;SDS011;5200;43.236;27.986;2023-09-18T11:01:34;4.80;;;2.47;;
10309;SDS011;5200;43.236;27.986;2023-09-18T11:04:03;3.05;;;2.58;;
10309;SDS011;5200;43.236;27.986;2023-09-18T11:09:40;5.18;;;2.72;;
10309;SDS011;5200;43.236;27.986;2023-09-18T11:12:10;8.38;;;2.88;;
10309;SDS011;5200;43.236;27.986;2023-09-18T11:14:41;4.40;;;3.10;;
10309;SDS011;5200;43.236;27.986;2023-09-18T11:20:01;3.25;;;2.70;;
10309;SDS011;5200;43.236;27.986;2023-09-18T11:22:35;5.55;;;2.95;;
10309;SDS011;5200;43.236;27.986;2023-09-18T11:28:22;6.65;;;3.05;;
10309;SDS011;5200;43.236;27.986;2023-09-18T11:30:51;5.88;;;3.65;;
10309;SDS011;5200;43.236;27.986;2023-09-18T11:33:32;5.78;;;3.13;;
10309;SDS011;5200;43.236;27.986;2023-09-18T11:36:03;6.22;;;2.97;;
10309;SDS011;5200;43.236;27.986;2023-09-18T11:38:34;8.13;;;3.25;;
10309;SDS011;5200;43.236;27.986;2023-09-18T11:41:22;5.30;;;3.20;;
10309;SDS011;5200;43.236;27.986;2023-09-18T11:43:50;4.15;;;3.35;;
10309;SDS011;5200;43.236;27.986;2023-09-18T11:46:18;6.75;;;3.63;;
10309;SDS011;5200;43.236;27.986;2023-09-18T11:48:47;7.20;;;3.17;;
10309;SDS011;5200;43.236;27.986;2023-09-18T11:51:20;5.03;;;3.10;;
10309;SDS011;5200;43.236;27.986;2023-09-18T11:53:51;4.43;;;2.83;;
10309;SDS011;5200;43.236;27.986;2023-09-18T11:56:21;5.47;;;3.08;;
10309;SDS011;5200;43.236;27.986;2023-09-18T11:58:49;5.28;;;2.97;;
10309;SDS011;5200;43.236;27.986;2023-09-18T12:01:17;5.88;;;3.03;;
10309;SDS011;5200;43.236;27.986;2023-09-18T12:03:45;9.35;;;3.70;;
10309;SDS011;5200;43.236;27.986;2023-09-18T12:06:14;5.30;;;2.90;;
10309;SDS011;5200;43.236;27.986;2023-09-18T12:08:41;6.18;;;3.33;;
10309;SDS011;5200;43.236;27.986;2023-09-18T12:11:09;3.63;;;3.30;;
10309;SDS011;5200;43.236;27.986;2023-09-18T12:13:41;7.88;;;3.38;;
10309;SDS011;5200;43.236;27.986;2023-09-18T12:16:09;7.63;;;3.97;;
10309;SDS011;5200;43.236;27.986;2023-09-18T12:18:37;4.75;;;3.05;;
10309;SDS011;5200;43.236;27.986;2023-09-18T12:21:13;6.00;;;3.00;;
10309;SDS011;5200;43.236;27.986;2023-09-18T12:23:43;5.35;;;3.15;;
10309;SDS011;5200;43.236;27.986;2023-09-18T12:26:13;4.60;;;3.03;;
10309;SDS011;5200;43.236;27.986;2023-09-18T12:28:40;10.05;;;3.00;;
10309;SDS011;5200;43.236;27.986;2023-09-18T12:31:09;5.43;;;3.40;;
10309;SDS011;5200;43.236;27.986;2023-09-18T12:33:37;5.28;;;2.97;;
10309;SDS011;5200;43.236;27.986;2023-09-18T12:36:06;5.57;;;2.72;;
10309;SDS011;5200;43.236;27.986;2023-09-18T12:38:35;7.07;;;3.05;;
10309;SDS011;5200;43.236;27.986;2023-09-18T12:41:07;6.72;;;2.72;;
10309;SDS011;5200;43.236;27.986;2023-09-18T12:46:37;4.78;;;3.35;;
10309;SDS011;5200;43.236;27.986;2023-09-18T12:49:16;4.50;;;3.13;;
10309;SDS011;5200;43.236;27.986;2023-09-18T12:51:53;2.90;;;2.70;;
10309;SDS011;5200;43.236;27.986;2023-09-18T12:54:21;9.18;;;3.22;;
10309;SDS011;5200;43.236;27.986;2023-09-18T12:56:49;8.80;;;3.60;;
10309;SDS011;5200;43.236;27.986;2023-09-18T12:59:17;6.65;;;2.88;;
10309;SDS011;5200;43.236;27.986;2023-09-18T13:01:49;5.53;;;3.08;;
10309;SDS011;5200;43.236;27.986;2023-09-18T13:04:17;7.13;;;3.45;;
10309;SDS011;5200;43.236;27.986;2023-09-18T13:07:02;9.85;;;3.33;;
10309;SDS011;5200;43.236;27.986;2023-09-18T13:09:38;7.85;;;3.20;;
10309;SDS011;5200;43.236;27.986;2023-09-18T13:12:06;4.43;;;3.42;;
10309;SDS011;5200;43.236;27.986;2023-09-18T13:17:36;9.52;;;3.40;;
10309;SDS011;5200;43.236;27.986;2023-09-18T13:20:11;8.25;;;3.92;;
10309;SDS011;5200;43.236;27.986;2023-09-18T13:22:47;5.57;;;3.13;;
10309;SDS011;5200;43.236;27.986;2023-09-18T13:25:18;6.25;;;3.22;;
10309;SDS011;5200;43.236;27.986;2023-09-18T13:27:46;6.63;;;3.58;;
10309;SDS011;5200;43.236;27.986;2023-09-18T13:30:13;10.85;;;3.40;;
10309;SDS011;5200;43.236;27.986;2023-09-18T13:32:45;8.38;;;3.00;;
10309;SDS011;5200;43.236;27.986;2023-09-18T13:35:13;5.80;;;3.95;;
10309;SDS011;5200;43.236;27.986;2023-09-18T13:37:41;9.60;;;3.53;;
10309;SDS011;5200;43.236;27.986;2023-09-18T13:40:09;5.60;;;3.42;;
10309;SDS011;5200;43.236;27.986;2023-09-18T13:42:50;14.73;;;4.32;;
10309;SDS011;5200;43.236;27.986;2023-09-18T13:45:17;5.97;;;3.92;;
10309;SDS011;5200;43.236;27.986;2023-09-18T13:47:46;3.97;;;3.13;;
10309;SDS011;5200;43.236;27.986;2023-09-18T13:50:14;6.60;;;3.95;;
10309;SDS011;5200;43.236;27.986;2023-09-18T13:52:41;7.55;;;3.63;;
10309;SDS011;5200;43.236;27.986;2023-09-18T13:55:09;6.30;;;3.63;;
10309;SDS011;5200;43.236;27.986;2023-09-18T13:57:37;5.40;;;3.30;;
10309;SDS011;5200;43.236;27.986;2023-09-18T14:00:06;5.72;;;3.53;;
10309;SDS011;5200;43.236;27.986;2023-09-18T14:02:49;7.13;;;3.30;;
10309;SDS011;5200;43.236;27.986;2023-09-18T14:05:16;4.57;;;3.53;;
10309;SDS011;5200;43.236;27.986;2023-09-18T14:07:44;6.07;;;3.30;;
10309;SDS011;5200;43.236;27.986;2023-09-18T14:10:12;6.35;;;3.30;;
10309;SDS011;5200;43.236;27.986;2023-09-18T14:12:54;8.43;;;3.97;;
10309;SDS011;5200;43.236;27.986;2023-09-18T14:15:22;7.97;;;3.85;;
10309;SDS011;5200;43.236;27.986;2023-09-18T14:17:52;5.45;;;3.75;;
10309;SDS011;5200;43.236;27.986;2023-09-18T14:20:19;7.75;;;4.00;;
10309;SDS011;5200;43.236;27.986;2023-09-18T14:22:46;6.82;;;3.70;;
10309;SDS011;5200;43.236;27.986;2023-09-18T14:25:15;4.45;;;3.40;;
10309;SDS011;5200;43.236;27.986;2023-09-18T14:27:42;4.28;;;3.60;;
10309;SDS011;5200;43.236;27.986;2023-09-18T14:30:10;4.32;;;3.45;;
10309;SDS011;5200;43.236;27.986;2023-09-18T14:32:38;5.28;;;3.58;;
10309;SDS011;5200;43.236;27.986;2023-09-18T14:35:18;4.55;;;3.15;;
10309;SDS011;5200;43.236;27.986;2023-09-18T14:37:51;8.85;;;4.38;;
10309;SDS011;5200;43.236;27.986;2023-09-18T14:40:22;5.25;;;3.58;;
10309;SDS011;5200;43.236;27.986;2023-09-18T14:42:49;4.82;;;3.78;;
10309;SDS011;5200;43.236;27.986;2023-09-18T14:45:17;3.83;;;3.53;;
10309;SDS011;5200;43.236;27.986;2023-09-18T14:47:44;3.80;;;3.28;;
10309;SDS011;5200;43.236;27.986;2023-09-18T14:50:14;3.50;;;3.20;;
10309;SDS011;5200;43.236;27.986;2023-09-18T14:52:42;3.88;;;3.20;;
10309;SDS011;5200;43.236;27.986;2023-09-18T14:55:22;7.07;;;3.22;;
10309;SDS011;5200;43.236;27.986;2023-09-18T14:58:03;5.65;;;4.18;;
10309;SDS011;5200;43.236;27.986;2023-09-18T15:00:31;5.57;;;3.88;;
10309;SDS011;5200;43.236;27.986;2023-09-18T15:02:58;4.70;;;3.20;;
10309;SDS011;5200;43.236;27.986;2023-09-18T15:05:27;5.90;;;3.25;;
10309;SDS011;5200;43.236;27.986;2023-09-18T15:07:54;4.50;;;3.65;;
10309;SDS011;5200;43.236;27.986;2023-09-18T15:10:21;5.72;;;3.30;;
10309;SDS011;5200;43.236;27.986;2023-09-18T15:12:48;3.58;;;3.05;;
10309;SDS011;5200;43.236;27.986;2023-09-18T15:15:15;6.00;;;3.22;;
10309;SDS011;5200;43.236;27.986;2023-09-18T15:17:42;5.30;;;3.00;;
10309;SDS011;5200;43.236;27.986;2023-09-18T15:20:09;6.75;;;3.60;;
10309;SDS011;5200;43.236;27.986;2023-09-18T15:22:39;6.43;;;3.85;;
10309;SDS011;5200;43.236;27.986;2023-09-18T15:25:19;3.92;;;2.95;;